sensor_id;sensor_type;location;lat;lon;timestamp;temperature;humidity
2212;DHT22;48849;48.758;9.158;2023-08-21T00:00:38;25.80;99.90
2212;DHT22;48849;48.758;9.158;2023-08-21T00:03:05;26.30;99.90
2212;DHT22;48849;48.758;9.158;2023-08-21T00:05:31;25.90;99.90
2212;DHT22;48849;48.758;9.158;2023-08-21T00:07:58;25.70;99.90
2212;DHT22;48849;48.758;9.158;2023-08-21T00:10:26;25.80;99.90
2212;DHT22;48849;48.758;9.158;2023-08-21T00:12:53;25.80;99.90
2212;DHT22;48849;48.758;9.158;2023-08-21T00:15:20;25.80;99.90
2212;DHT22;48849;48.758;9.158;2023-08-21T00:17:47;25.90;99.90
2212;DHT22;48849;48.758;9.158;2023-08-21T00:20:13;25.80;99.90
2212;DHT22;48849;48.758;9.158;2023-08-21T00:22:40;25.80;99.90
2212;DHT22;48849;48.758;9.158;2023-08-21T00:25:07;25.80;99.90
2212;DHT22;48849;48.758;9.158;2023-08-21T00:27:35;25.80;99.90
2212;DHT22;48849;48.758;9.158;2023-08-21T00:30:02;26.50;99.90
2212;DHT22;48849;48.758;9.158;2023-08-21T00:32:29;25.80;99.90
2212;DHT22;48849;48.758;9.158;2023-08-21T00:34:56;25.80;99.90
2212;DHT22;48849;48.758;9.158;2023-08-21T00:37:23;25.70;99.90
2212;DHT22;48849;48.758;9.158;2023-08-21T00:39:50;25.70;99.90
2212;DHT22;48849;48.758;9.158;2023-08-21T00:42:16;25.80;99.90
2212;DHT22;48849;48.758;9.158;2023-08-21T00:44:44;25.80;99.90
2212;DHT22;48849;48.758;9.158;2023-08-21T00:47:11;26.30;99.90
2212;DHT22;48849;48.758;9.158;2023-08-21T00:49:38;25.80;99.90
2212;DHT22;48849;48.758;9.158;2023-08-21T00:52:07;25.70;99.90
2212;DHT22;48849;48.758;9.158;2023-08-21T00:54:35;25.80;99.90
2212;DHT22;48849;48.758;9.158;2023-08-21T00:57:01;25.80;99.90
2212;DHT22;48849;48.758;9.158;2023-08-21T00:59:29;25.80;99.90
2212;DHT22;48849;48.758;9.158;2023-08-21T01:01:57;25.80;99.90
2212;DHT22;48849;48.758;9.158;2023-08-21T01:04:24;25.70;99.90
2212;DHT22;48849;48.758;9.158;2023-08-21T01:06:51;25.70;99.90
2212;DHT22;48849;48.758;9.158;2023-08-21T01:09:25;25.70;99.90
2212;DHT22;48849;48.758;9.158;2023-08-21T01:11:58;25.70;99.90
2212;DHT22;48849;48.758;9.158;2023-08-21T01:14:36;25.70;99.90
2212;DHT22;48849;48.758;9.158;2023-08-21T01:17:09;25.70;99.90
2212;DHT22;48849;48.758;9.158;2023-08-21T01:19:41;25.70;99.90
2212;DHT22;48849;48.758;9.158;2023-08-21T01:22:08;25.60;99.90
2212;DHT22;48849;48.758;9.158;2023-08-21T01:24:36;25.60;99.90
2212;DHT22;48849;48.758;9.158;2023-08-21T01:27:03;25.60;99.90
2212;DHT22;48849;48.758;9.158;2023-08-21T01:29:30;25.60;99.90
2212;DHT22;48849;48.758;9.158;2023-08-21T01:32:02;25.70;99.90
2212;DHT22;48849;48.758;9.158;2023-08-21T01:34:33;25.60;99.90
2212;DHT22;48849;48.758;9.158;2023-08-21T01:37:01;25.60;99.90
2212;DHT22;48849;48.758;9.158;2023-08-21T01:39:28;25.60;99.90
2212;DHT22;48849;48.758;9.158;2023-08-21T01:41:57;25.60;99.90
2212;DHT22;48849;48.758;9.158;2023-08-21T01:44:24;25.60;99.90
2212;DHT22;48849;48.758;9.158;2023-08-21T01:46:52;25.60;99.90
2212;DHT22;48849;48.758;9.158;2023-08-21T01:49:19;26.10;99.90
2212;DHT22;48849;48.758;9.158;2023-08-21T01:51:45;25.60;99.90
2212;DHT22;48849;48.758;9.158;2023-08-21T01:54:12;25.60;99.90
2212;DHT22;48849;48.758;9.158;2023-08-21T01:56:39;25.60;99.90
2212;DHT22;48849;48.758;9.158;2023-08-21T01:59:07;25.50;99.90
2212;DHT22;48849;48.758;9.158;2023-08-21T02:01:34;25.80;99.90
2212;DHT22;48849;48.758;9.158;2023-08-21T02:04:00;25.40;99.90
2212;DHT22;48849;48.758;9.158;2023-08-21T02:06:27;25.50;99.90
2212;DHT22;48849;48.758;9.158;2023-08-21T02:08:54;25.40;99.90
2212;DHT22;48849;48.758;9.158;2023-08-21T02:11:21;25.40;99.90
2212;DHT22;48849;48.758;9.158;2023-08-21T02:13:48;25.30;99.90
2212;DHT22;48849;48.758;9.158;2023-08-21T02:16:16;25.40;99.90
2212;DHT22;48849;48.758;9.158;2023-08-21T02:18:43;25.40;99.90
2212;DHT22;48849;48.758;9.158;2023-08-21T02:21:09;25.40;99.90
2212;DHT22;48849;48.758;9.158;2023-08-21T02:23:36;25.40;99.90
2212;DHT22;48849;48.758;9.158;2023-08-21T02:26:03;25.40;99.90
2212;DHT22;48849;48.758;9.158;2023-08-21T02:28:29;25.40;99.90
2212;DHT22;48849;48.758;9.158;2023-08-21T02:30:56;25.30;99.90
2212;DHT22;48849;48.758;9.158;2023-08-21T02:33:24;25.40;99.90
2212;DHT22;48849;48.758;9.158;2023-08-21T02:35:51;25.30;99.90
2212;DHT22;48849;48.758;9.158;2023-08-21T02:38:18;25.60;99.90
2212;DHT22;48849;48.758;9.158;2023-08-21T02:40:44;25.30;99.90
2212;DHT22;48849;48.758;9.158;2023-08-21T02:43:12;25.30;99.90
2212;DHT22;48849;48.758;9.158;2023-08-21T02:45:39;25.30;99.90
2212;DHT22;48849;48.758;9.158;2023-08-21T02:48:06;25.30;99.90
2212;DHT22;48849;48.758;9.158;2023-08-21T02:50:34;25.30;99.90
2212;DHT22;48849;48.758;9.158;2023-08-21T02:53:01;25.30;99.90
2212;DHT22;48849;48.758;9.158;2023-08-21T02:55:28;25.30;99.90
2212;DHT22;48849;48.758;9.158;2023-08-21T02:57:54;25.20;99.90
2212;DHT22;48849;48.758;9.158;2023-08-21T03:00:21;25.00;99.90
2212;DHT22;48849;48.758;9.158;2023-08-21T03:02:48;25.30;99.90
2212;DHT22;48849;48.758;9.158;2023-08-21T03:05:15;25.20;99.90
2212;DHT22;48849;48.758;9.158;2023-08-21T03:07:43;25.20;99.90
2212;DHT22;48849;48.758;9.158;2023-08-21T03:10:10;25.20;99.90
2212;DHT22;48849;48.758;9.158;2023-08-21T03:12:37;25.30;99.90
2212;DHT22;48849;48.758;9.158;2023-08-21T03:15:04;25.20;99.90
2212;DHT22;48849;48.758;9.158;2023-08-21T03:17:31;25.20;99.90
2212;DHT22;48849;48.758;9.158;2023-08-21T03:19:58;25.60;99.90
2212;DHT22;48849;48.758;9.158;2023-08-21T03:22:25;25.10;99.90
2212;DHT22;48849;48.758;9.158;2023-08-21T03:24:53;25.10;99.90
2212;DHT22;48849;48.758;9.158;2023-08-21T03:27:20;25.10;99.90
2212;DHT22;48849;48.758;9.158;2023-08-21T03:29:46;25.10;99.90
2212;DHT22;48849;48.758;9.158;2023-08-21T03:32:15;25.00;99.90
2212;DHT22;48849;48.758;9.158;2023-08-21T03:34:42;25.00;99.90
2212;DHT22;48849;48.758;9.158;2023-08-21T03:37:09;25.00;99.90
2212;DHT22;48849;48.758;9.158;2023-08-21T03:39:36;24.90;99.90
2212;DHT22;48849;48.758;9.158;2023-08-21T03:42:06;25.00;99.90
2212;DHT22;48849;48.758;9.158;2023-08-21T03:44:32;25.00;99.90
2212;DHT22;48849;48.758;9.158;2023-08-21T03:47:00;25.00;99.90
2212;DHT22;48849;48.758;9.158;2023-08-21T03:49:26;25.00;99.90
2212;DHT22;48849;48.758;9.158;2023-08-21T03:51:53;25.00;99.90
2212;DHT22;48849;48.758;9.158;2023-08-21T03:54:20;24.90;99.90
2212;DHT22;48849;48.758;9.158;2023-08-21T03:56:46;24.90;99.90
2212;DHT22;48849;48.758;9.158;2023-08-21T03:59:14;24.80;99.90
2212;DHT22;48849;48.758;9.158;2023-08-21T04:01:41;24.80;99.90
2212;DHT22;48849;48.758;9.158;2023-08-21T04:04:08;24.90;99.90
2212;DHT22;48849;48.758;9.158;2023-08-21T04:06:35;24.90;99.90
2212;DHT22;48849;48.758;9.158;2023-08-21T04:09:01;24.90;99.90
2212;DHT22;48849;48.758;9.158;2023-08-21T04:11:31;24.90;99.90
2212;DHT22;48849;48.758;9.158;2023-08-21T04:13:58;24.90;99.90
2212;DHT22;48849;48.758;9.158;2023-08-21T04:16:27;24.90;99.90
2212;DHT22;48849;48.758;9.158;2023-08-21T04:18:55;24.80;99.90
2212;DHT22;48849;48.758;9.158;2023-08-21T04:21:21;24.90;99.90
2212;DHT22;48849;48.758;9.158;2023-08-21T04:23:48;24.80;99.90
2212;DHT22;48849;48.758;9.158;2023-08-21T04:26:15;24.80;99.90
2212;DHT22;48849;48.758;9.158;2023-08-21T04:28:41;24.80;99.90
2212;DHT22;48849;48.758;9.158;2023-08-21T04:31:08;24.80;99.90
2212;DHT22;48849;48.758;9.158;2023-08-21T04:33:36;24.80;99.90
2212;DHT22;48849;48.758;9.158;2023-08-21T04:36:03;24.80;99.90
2212;DHT22;48849;48.758;9.158;2023-08-21T04:38:30;24.80;99.90
2212;DHT22;48849;48.758;9.158;2023-08-21T04:41:05;24.80;99.90
2212;DHT22;48849;48.758;9.158;2023-08-21T04:43:33;24.70;99.90
2212;DHT22;48849;48.758;9.158;2023-08-21T04:45:59;24.70;99.90
2212;DHT22;48849;48.758;9.158;2023-08-21T04:48:26;24.70;99.90
2212;DHT22;48849;48.758;9.158;2023-08-21T04:50:54;24.70;99.90
2212;DHT22;48849;48.758;9.158;2023-08-21T04:53:21;24.70;99.90
2212;DHT22;48849;48.758;9.158;2023-08-21T04:55:48;24.70;99.90
2212;DHT22;48849;48.758;9.158;2023-08-21T04:58:14;24.70;99.90
2212;DHT22;48849;48.758;9.158;2023-08-21T05:00:44;24.60;99.90
2212;DHT22;48849;48.758;9.158;2023-08-21T05:03:11;24.60;99.90
2212;DHT22;48849;48.758;9.158;2023-08-21T05:05:37;24.60;99.90
2212;DHT22;48849;48.758;9.158;2023-08-21T05:08:06;24.60;99.90
2212;DHT22;48849;48.758;9.158;2023-08-21T05:10:32;24.60;99.90
2212;DHT22;48849;48.758;9.158;2023-08-21T05:12:59;24.70;99.90
2212;DHT22;48849;48.758;9.158;2023-08-21T05:15:26;24.70;99.90
2212;DHT22;48849;48.758;9.158;2023-08-21T05:17:53;24.60;99.90
2212;DHT22;48849;48.758;9.158;2023-08-21T05:20:19;24.60;99.90
2212;DHT22;48849;48.758;9.158;2023-08-21T05:22:46;24.60;99.90
2212;DHT22;48849;48.758;9.158;2023-08-21T05:25:14;24.50;99.90
2212;DHT22;48849;48.758;9.158;2023-08-21T05:27:41;24.50;99.90
2212;DHT22;48849;48.758;9.158;2023-08-21T05:30:09;24.50;99.90
2212;DHT22;48849;48.758;9.158;2023-08-21T05:32:36;24.50;99.90
2212;DHT22;48849;48.758;9.158;2023-08-21T05:35:03;24.60;99.90
2212;DHT22;48849;48.758;9.158;2023-08-21T05:37:30;24.60;99.90
2212;DHT22;48849;48.758;9.158;2023-08-21T05:39:56;24.60;99.90
2212;DHT22;48849;48.758;9.158;2023-08-21T05:42:25;24.60;99.90
2212;DHT22;48849;48.758;9.158;2023-08-21T05:44:51;24.50;99.90
2212;DHT22;48849;48.758;9.158;2023-08-21T05:47:18;24.50;99.90
2212;DHT22;48849;48.758;9.158;2023-08-21T05:49:45;24.50;99.90
2212;DHT22;48849;48.758;9.158;2023-08-21T05:52:13;24.50;99.90
2212;DHT22;48849;48.758;9.158;2023-08-21T05:54:39;24.50;99.90
2212;DHT22;48849;48.758;9.158;2023-08-21T05:57:06;24.50;99.90
2212;DHT22;48849;48.758;9.158;2023-08-21T05:59:34;24.50;99.90
2212;DHT22;48849;48.758;9.158;2023-08-21T06:02:01;24.50;99.90
2212;DHT22;48849;48.758;9.158;2023-08-21T06:04:28;24.50;99.90
2212;DHT22;48849;48.758;9.158;2023-08-21T06:06:54;24.50;99.90
2212;DHT22;48849;48.758;9.158;2023-08-21T06:09:21;24.50;99.90
2212;DHT22;48849;48.758;9.158;2023-08-21T06:11:48;24.60;99.90
2212;DHT22;48849;48.758;9.158;2023-08-21T06:14:15;24.60;99.90
2212;DHT22;48849;48.758;9.158;2023-08-21T06:16:43;24.50;99.90
2212;DHT22;48849;48.758;9.158;2023-08-21T06:19:10;24.40;99.90
2212;DHT22;48849;48.758;9.158;2023-08-21T06:21:37;24.40;99.90
2212;DHT22;48849;48.758;9.158;2023-08-21T06:24:04;24.40;99.90
2212;DHT22;48849;48.758;9.158;2023-08-21T06:26:31;24.40;99.90
2212;DHT22;48849;48.758;9.158;2023-08-21T06:28:57;24.40;99.90
2212;DHT22;48849;48.758;9.158;2023-08-21T06:31:24;24.50;99.90
2212;DHT22;48849;48.758;9.158;2023-08-21T06:33:52;24.50;99.90
2212;DHT22;48849;48.758;9.158;2023-08-21T06:36:19;24.50;99.90
2212;DHT22;48849;48.758;9.158;2023-08-21T06:38:45;24.50;99.90
2212;DHT22;48849;48.758;9.158;2023-08-21T06:41:12;24.40;99.90
2212;DHT22;48849;48.758;9.158;2023-08-21T06:43:39;24.50;99.90
2212;DHT22;48849;48.758;9.158;2023-08-21T06:46:06;24.60;99.90
2212;DHT22;48849;48.758;9.158;2023-08-21T06:48:37;24.70;99.90
2212;DHT22;48849;48.758;9.158;2023-08-21T06:51:06;24.70;99.90
2212;DHT22;48849;48.758;9.158;2023-08-21T06:57:12;24.70;99.90
2212;DHT22;48849;48.758;9.158;2023-08-21T06:59:39;24.70;99.90
2212;DHT22;48849;48.758;9.158;2023-08-21T07:02:06;24.80;99.90
2212;DHT22;48849;48.758;9.158;2023-08-21T07:04:32;24.80;99.90
2212;DHT22;48849;48.758;9.158;2023-08-21T07:07:00;24.80;99.90
2212;DHT22;48849;48.758;9.158;2023-08-21T07:09:27;24.80;99.90
2212;DHT22;48849;48.758;9.158;2023-08-21T07:11:54;24.90;99.90
2212;DHT22;48849;48.758;9.158;2023-08-21T07:14:22;24.90;99.90
2212;DHT22;48849;48.758;9.158;2023-08-21T07:16:48;24.90;99.90
2212;DHT22;48849;48.758;9.158;2023-08-21T07:19:16;24.90;99.90
2212;DHT22;48849;48.758;9.158;2023-08-21T07:21:43;24.90;99.90
2212;DHT22;48849;48.758;9.158;2023-08-21T07:24:11;24.90;99.90
2212;DHT22;48849;48.758;9.158;2023-08-21T07:26:38;24.90;99.90
2212;DHT22;48849;48.758;9.158;2023-08-21T07:29:05;25.00;99.90
2212;DHT22;48849;48.758;9.158;2023-08-21T07:31:34;25.00;99.90
2212;DHT22;48849;48.758;9.158;2023-08-21T07:34:01;25.00;99.90
2212;DHT22;48849;48.758;9.158;2023-08-21T07:36:27;25.10;99.90
2212;DHT22;48849;48.758;9.158;2023-08-21T07:38:54;25.10;99.90
2212;DHT22;48849;48.758;9.158;2023-08-21T07:41:37;25.10;99.90
2212;DHT22;48849;48.758;9.158;2023-08-21T07:56:39;25.10;99.90
2212;DHT22;48849;48.758;9.158;2023-08-21T07:59:06;25.10;99.90
2212;DHT22;48849;48.758;9.158;2023-08-21T08:01:33;25.20;99.90
2212;DHT22;48849;48.758;9.158;2023-08-21T08:03:59;25.20;99.90
2212;DHT22;48849;48.758;9.158;2023-08-21T08:06:26;25.20;99.90
2212;DHT22;48849;48.758;9.158;2023-08-21T08:08:53;25.20;99.90
2212;DHT22;48849;48.758;9.158;2023-08-21T08:11:40;25.20;99.90
2212;DHT22;48849;48.758;9.158;2023-08-21T08:20:53;25.30;99.90
2212;DHT22;48849;48.758;9.158;2023-08-21T08:40:09;25.40;99.90
2212;DHT22;48849;48.758;9.158;2023-08-21T08:42:38;25.50;99.90
2212;DHT22;48849;48.758;9.158;2023-08-21T08:46:36;25.50;99.90
2212;DHT22;48849;48.758;9.158;2023-08-21T08:48:34;25.50;99.90
2212;DHT22;48849;48.758;9.158;2023-08-21T08:51:17;25.50;99.90
2212;DHT22;48849;48.758;9.158;2023-08-21T08:53:48;25.50;99.90
2212;DHT22;48849;48.758;9.158;2023-08-21T08:56:20;25.60;99.90
2212;DHT22;48849;48.758;9.158;2023-08-21T08:59:20;25.60;99.90
2212;DHT22;48849;48.758;9.158;2023-08-21T09:02:10;25.60;99.90
2212;DHT22;48849;48.758;9.158;2023-08-21T09:04:51;25.70;99.90
2212;DHT22;48849;48.758;9.158;2023-08-21T09:07:19;25.70;99.90
2212;DHT22;48849;48.758;9.158;2023-08-21T09:09:58;25.80;99.90
2212;DHT22;48849;48.758;9.158;2023-08-21T09:12:31;25.80;99.90
2212;DHT22;48849;48.758;9.158;2023-08-21T09:14:58;25.80;99.90
2212;DHT22;48849;48.758;9.158;2023-08-21T09:17:26;25.80;99.90
2212;DHT22;48849;48.758;9.158;2023-08-21T09:19:54;25.80;99.90
2212;DHT22;48849;48.758;9.158;2023-08-21T09:22:21;25.80;99.90
2212;DHT22;48849;48.758;9.158;2023-08-21T09:25:01;25.90;99.90
2212;DHT22;48849;48.758;9.158;2023-08-21T09:27:32;25.90;99.90
2212;DHT22;48849;48.758;9.158;2023-08-21T09:29:59;25.90;99.90
2212;DHT22;48849;48.758;9.158;2023-08-21T09:32:26;26.00;99.90
2212;DHT22;48849;48.758;9.158;2023-08-21T09:34:54;26.00;99.90
2212;DHT22;48849;48.758;9.158;2023-08-21T09:37:21;26.10;99.90
2212;DHT22;48849;48.758;9.158;2023-08-21T09:39:54;26.00;99.90
2212;DHT22;48849;48.758;9.158;2023-08-21T09:42:28;26.00;99.90
2212;DHT22;48849;48.758;9.158;2023-08-21T09:44:55;26.00;99.90
2212;DHT22;48849;48.758;9.158;2023-08-21T09:47:23;26.00;99.90
2212;DHT22;48849;48.758;9.158;2023-08-21T09:49:50;26.10;99.90
2212;DHT22;48849;48.758;9.158;2023-08-21T09:52:19;26.10;99.90
2212;DHT22;48849;48.758;9.158;2023-08-21T09:54:46;26.10;99.90
2212;DHT22;48849;48.758;9.158;2023-08-21T09:57:13;26.10;99.90
2212;DHT22;48849;48.758;9.158;2023-08-21T09:59:41;26.10;99.90
2212;DHT22;48849;48.758;9.158;2023-08-21T10:02:09;26.10;99.90
2212;DHT22;48849;48.758;9.158;2023-08-21T10:04:37;26.10;99.90
2212;DHT22;48849;48.758;9.158;2023-08-21T10:07:07;26.10;99.90
2212;DHT22;48849;48.758;9.158;2023-08-21T10:09:37;26.20;99.90
2212;DHT22;48849;48.758;9.158;2023-08-21T10:12:05;26.20;99.90
2212;DHT22;48849;48.758;9.158;2023-08-21T10:14:33;26.20;99.90
2212;DHT22;48849;48.758;9.158;2023-08-21T10:16:59;26.30;99.90
2212;DHT22;48849;48.758;9.158;2023-08-21T10:19:30;26.30;99.90
2212;DHT22;48849;48.758;9.158;2023-08-21T10:21:57;26.30;99.90
2212;DHT22;48849;48.758;9.158;2023-08-21T10:24:28;26.30;99.90
2212;DHT22;48849;48.758;9.158;2023-08-21T10:27:00;26.30;99.90
2212;DHT22;48849;48.758;9.158;2023-08-21T10:29:27;26.40;99.90
2212;DHT22;48849;48.758;9.158;2023-08-21T10:31:59;26.40;99.90
2212;DHT22;48849;48.758;9.158;2023-08-21T10:34:33;26.40;99.90
2212;DHT22;48849;48.758;9.158;2023-08-21T10:37:07;26.40;99.90
2212;DHT22;48849;48.758;9.158;2023-08-21T10:46:00;26.50;99.90
2212;DHT22;48849;48.758;9.158;2023-08-21T10:48:26;26.50;99.90
2212;DHT22;48849;48.758;9.158;2023-08-21T10:50:54;26.60;99.90
2212;DHT22;48849;48.758;9.158;2023-08-21T10:53:22;26.60;99.90
2212;DHT22;48849;48.758;9.158;2023-08-21T10:59:25;26.70;99.90
2212;DHT22;48849;48.758;9.158;2023-08-21T11:02:44;26.70;99.90
2212;DHT22;48849;48.758;9.158;2023-08-21T11:05:12;26.80;99.90
2212;DHT22;48849;48.758;9.158;2023-08-21T11:08:12;26.80;99.90
2212;DHT22;48849;48.758;9.158;2023-08-21T11:10:46;26.90;99.90
2212;DHT22;48849;48.758;9.158;2023-08-21T11:13:52;27.00;99.90
2212;DHT22;48849;48.758;9.158;2023-08-21T11:16:19;27.00;99.90
2212;DHT22;48849;48.758;9.158;2023-08-21T11:18:49;27.10;99.90
2212;DHT22;48849;48.758;9.158;2023-08-21T11:21:19;27.10;99.90
2212;DHT22;48849;48.758;9.158;2023-08-21T11:23:47;27.10;99.90
2212;DHT22;48849;48.758;9.158;2023-08-21T11:26:20;27.30;99.90
2212;DHT22;48849;48.758;9.158;2023-08-21T11:28:48;27.40;99.90
2212;DHT22;48849;48.758;9.158;2023-08-21T11:31:16;27.40;99.90
2212;DHT22;48849;48.758;9.158;2023-08-21T11:33:59;27.60;99.90
2212;DHT22;48849;48.758;9.158;2023-08-21T11:36:36;27.60;99.90
2212;DHT22;48849;48.758;9.158;2023-08-21T11:45:46;28.00;99.90
2212;DHT22;48849;48.758;9.158;2023-08-21T12:21:47;29.20;99.90
2212;DHT22;48849;48.758;9.158;2023-08-21T12:24:35;29.30;99.90
2212;DHT22;48849;48.758;9.158;2023-08-21T12:27:03;29.40;99.90
2212;DHT22;48849;48.758;9.158;2023-08-21T12:29:30;29.40;99.90
2212;DHT22;48849;48.758;9.158;2023-08-21T12:38:38;29.10;99.90
2212;DHT22;48849;48.758;9.158;2023-08-21T12:41:07;29.00;99.90
2212;DHT22;48849;48.758;9.158;2023-08-21T12:43:34;29.00;99.90
2212;DHT22;48849;48.758;9.158;2023-08-21T12:56:04;29.20;99.90
2212;DHT22;48849;48.758;9.158;2023-08-21T12:58:30;29.50;99.90
2212;DHT22;48849;48.758;9.158;2023-08-21T13:00:58;29.60;99.90
2212;DHT22;48849;48.758;9.158;2023-08-21T13:04:13;29.60;99.90
2212;DHT22;48849;48.758;9.158;2023-08-21T13:07:22;29.70;99.90
2212;DHT22;48849;48.758;9.158;2023-08-21T13:10:01;29.90;99.90
2212;DHT22;48849;48.758;9.158;2023-08-21T13:13:03;30.30;99.90
2212;DHT22;48849;48.758;9.158;2023-08-21T13:22:03;30.80;99.90
2212;DHT22;48849;48.758;9.158;2023-08-21T13:26:03;30.50;99.90
2212;DHT22;48849;48.758;9.158;2023-08-21T13:38:16;29.90;99.90
2212;DHT22;48849;48.758;9.158;2023-08-21T13:43:30;30.30;99.90
2212;DHT22;48849;48.758;9.158;2023-08-21T13:46:00;30.80;99.90
2212;DHT22;48849;48.758;9.158;2023-08-21T13:48:27;30.90;99.90
2212;DHT22;48849;48.758;9.158;2023-08-21T13:50:56;31.00;99.90
2212;DHT22;48849;48.758;9.158;2023-08-21T13:53:25;32.10;99.90
2212;DHT22;48849;48.758;9.158;2023-08-21T13:55:52;33.50;99.90
2212;DHT22;48849;48.758;9.158;2023-08-21T13:58:20;34.20;99.90
2212;DHT22;48849;48.758;9.158;2023-08-21T14:00:47;34.80;99.90
2212;DHT22;48849;48.758;9.158;2023-08-21T14:03:15;34.50;99.90
2212;DHT22;48849;48.758;9.158;2023-08-21T14:05:42;33.80;99.90
2212;DHT22;48849;48.758;9.158;2023-08-21T14:08:09;33.20;99.90
2212;DHT22;48849;48.758;9.158;2023-08-21T14:10:36;32.60;99.90
2212;DHT22;48849;48.758;9.158;2023-08-21T14:13:03;32.10;99.90
2212;DHT22;48849;48.758;9.158;2023-08-21T14:15:31;31.60;99.90
2212;DHT22;48849;48.758;9.158;2023-08-21T14:17:58;31.10;99.90
2212;DHT22;48849;48.758;9.158;2023-08-21T14:20:26;30.70;99.90
2212;DHT22;48849;48.758;9.158;2023-08-21T14:22:53;30.50;99.90
2212;DHT22;48849;48.758;9.158;2023-08-21T14:25:20;30.20;99.90
2212;DHT22;48849;48.758;9.158;2023-08-21T14:27:46;30.00;99.90
2212;DHT22;48849;48.758;9.158;2023-08-21T14:30:14;29.80;99.90
2212;DHT22;48849;48.758;9.158;2023-08-21T14:32:41;29.60;99.90
2212;DHT22;48849;48.758;9.158;2023-08-21T14:35:08;29.50;99.90
2212;DHT22;48849;48.758;9.158;2023-08-21T14:37:36;29.30;99.90
2212;DHT22;48849;48.758;9.158;2023-08-21T14:40:05;29.20;99.90
2212;DHT22;48849;48.758;9.158;2023-08-21T14:42:33;29.20;99.90
2212;DHT22;48849;48.758;9.158;2023-08-21T14:45:00;29.10;99.90
2212;DHT22;48849;48.758;9.158;2023-08-21T14:47:26;29.00;99.90
2212;DHT22;48849;48.758;9.158;2023-08-21T14:49:53;29.00;99.90
2212;DHT22;48849;48.758;9.158;2023-08-21T14:52:20;28.80;99.90
2212;DHT22;48849;48.758;9.158;2023-08-21T14:54:50;28.80;99.90
2212;DHT22;48849;48.758;9.158;2023-08-21T14:57:18;28.70;99.90
2212;DHT22;48849;48.758;9.158;2023-08-21T14:59:47;28.60;99.90
2212;DHT22;48849;48.758;9.158;2023-08-21T15:02:14;28.60;99.90
2212;DHT22;48849;48.758;9.158;2023-08-21T15:04:42;28.50;99.90
2212;DHT22;48849;48.758;9.158;2023-08-21T15:07:09;28.50;99.90
2212;DHT22;48849;48.758;9.158;2023-08-21T15:09:36;28.40;99.90
2212;DHT22;48849;48.758;9.158;2023-08-21T15:12:05;28.40;99.90
2212;DHT22;48849;48.758;9.158;2023-08-21T15:14:32;28.30;99.90
2212;DHT22;48849;48.758;9.158;2023-08-21T15:16:58;28.30;99.90
2212;DHT22;48849;48.758;9.158;2023-08-21T15:19:28;28.20;99.90
2212;DHT22;48849;48.758;9.158;2023-08-21T15:21:55;28.20;99.90
2212;DHT22;48849;48.758;9.158;2023-08-21T15:24:21;28.20;99.90
2212;DHT22;48849;48.758;9.158;2023-08-21T15:26:48;28.20;99.90
2212;DHT22;48849;48.758;9.158;2023-08-21T15:29:16;28.10;99.90
2212;DHT22;48849;48.758;9.158;2023-08-21T15:31:43;28.10;99.90
2212;DHT22;48849;48.758;9.158;2023-08-21T15:34:10;28.10;99.90
2212;DHT22;48849;48.758;9.158;2023-08-21T15:36:36;28.10;99.90
2212;DHT22;48849;48.758;9.158;2023-08-21T15:39:03;28.00;99.90
2212;DHT22;48849;48.758;9.158;2023-08-21T15:41:30;27.90;99.90
2212;DHT22;48849;48.758;9.158;2023-08-21T15:43:56;28.00;99.90
2212;DHT22;48849;48.758;9.158;2023-08-21T15:46:24;27.90;99.90
2212;DHT22;48849;48.758;9.158;2023-08-21T15:48:52;27.90;99.90
2212;DHT22;48849;48.758;9.158;2023-08-21T15:51:18;27.90;99.90
2212;DHT22;48849;48.758;9.158;2023-08-21T15:53:45;27.90;99.90
2212;DHT22;48849;48.758;9.158;2023-08-21T15:56:12;27.90;99.90
2212;DHT22;48849;48.758;9.158;2023-08-21T15:58:38;27.90;99.90
2212;DHT22;48849;48.758;9.158;2023-08-21T16:01:05;28.00;99.90
2212;DHT22;48849;48.758;9.158;2023-08-21T16:03:33;27.90;99.90
2212;DHT22;48849;48.758;9.158;2023-08-21T16:06:00;27.90;99.90
2212;DHT22;48849;48.758;9.158;2023-08-21T16:08:28;27.90;99.90
2212;DHT22;48849;48.758;9.158;2023-08-21T16:10:55;27.80;99.90
2212;DHT22;48849;48.758;9.158;2023-08-21T16:13:22;27.80;99.90
2212;DHT22;48849;48.758;9.158;2023-08-21T16:15:49;27.80;99.90
2212;DHT22;48849;48.758;9.158;2023-08-21T16:18:16;27.70;99.90
2212;DHT22;48849;48.758;9.158;2023-08-21T16:20:44;27.70;99.90
2212;DHT22;48849;48.758;9.158;2023-08-21T16:23:10;27.70;99.90
2212;DHT22;48849;48.758;9.158;2023-08-21T16:25:37;27.70;99.90
2212;DHT22;48849;48.758;9.158;2023-08-21T16:28:04;27.70;99.90
2212;DHT22;48849;48.758;9.158;2023-08-21T16:30:31;27.60;99.90
2212;DHT22;48849;48.758;9.158;2023-08-21T16:32:58;27.60;99.90
2212;DHT22;48849;48.758;9.158;2023-08-21T16:35:25;27.60;99.90
2212;DHT22;48849;48.758;9.158;2023-08-21T16:37:54;27.60;99.90
2212;DHT22;48849;48.758;9.158;2023-08-21T16:40:22;27.60;99.90
2212;DHT22;48849;48.758;9.158;2023-08-21T16:42:58;27.60;99.90
2212;DHT22;48849;48.758;9.158;2023-08-21T16:45:27;27.60;99.90
2212;DHT22;48849;48.758;9.158;2023-08-21T16:47:54;27.60;99.90
2212;DHT22;48849;48.758;9.158;2023-08-21T16:50:25;27.60;99.90
2212;DHT22;48849;48.758;9.158;2023-08-21T16:52:54;27.50;99.90
2212;DHT22;48849;48.758;9.158;2023-08-21T16:55:21;27.60;99.90
2212;DHT22;48849;48.758;9.158;2023-08-21T16:57:50;27.60;99.90
2212;DHT22;48849;48.758;9.158;2023-08-21T17:00:20;27.60;99.90
2212;DHT22;48849;48.758;9.158;2023-08-21T17:03:15;27.50;99.90
2212;DHT22;48849;48.758;9.158;2023-08-21T17:05:42;27.50;99.90
2212;DHT22;48849;48.758;9.158;2023-08-21T17:08:10;27.50;99.90
2212;DHT22;48849;48.758;9.158;2023-08-21T17:10:37;27.50;99.90
2212;DHT22;48849;48.758;9.158;2023-08-21T17:13:03;27.50;99.90
2212;DHT22;48849;48.758;9.158;2023-08-21T17:15:30;27.50;99.90
2212;DHT22;48849;48.758;9.158;2023-08-21T17:17:57;27.50;99.90
2212;DHT22;48849;48.758;9.158;2023-08-21T17:20:24;27.60;99.90
2212;DHT22;48849;48.758;9.158;2023-08-21T17:22:51;27.50;99.90
2212;DHT22;48849;48.758;9.158;2023-08-21T17:25:19;27.40;99.90
2212;DHT22;48849;48.758;9.158;2023-08-21T17:27:46;27.40;99.90
2212;DHT22;48849;48.758;9.158;2023-08-21T17:30:13;27.50;99.90
2212;DHT22;48849;48.758;9.158;2023-08-21T17:32:41;27.40;99.90
2212;DHT22;48849;48.758;9.158;2023-08-21T17:35:08;27.40;99.90
2212;DHT22;48849;48.758;9.158;2023-08-21T17:37:35;27.40;99.90
2212;DHT22;48849;48.758;9.158;2023-08-21T17:40:01;27.40;99.90
2212;DHT22;48849;48.758;9.158;2023-08-21T17:42:30;27.40;99.90
2212;DHT22;48849;48.758;9.158;2023-08-21T17:44:57;27.60;99.90
2212;DHT22;48849;48.758;9.158;2023-08-21T17:47:24;27.40;99.90
2212;DHT22;48849;48.758;9.158;2023-08-21T17:49:51;27.40;99.90
2212;DHT22;48849;48.758;9.158;2023-08-21T17:52:17;27.30;99.90
2212;DHT22;48849;48.758;9.158;2023-08-21T17:54:44;27.30;99.90
2212;DHT22;48849;48.758;9.158;2023-08-21T17:57:11;27.30;99.90
2212;DHT22;48849;48.758;9.158;2023-08-21T17:59:40;27.30;99.90
2212;DHT22;48849;48.758;9.158;2023-08-21T18:02:07;27.30;99.90